»·PEaware :: N211AA KCRQ-KPSP

N211AA :: KCRQ-KPSP

FLIGHT INFORMATION

Flight Status: Arrived
Operator: Privately registered:
United States
More flights under this callsign
Pilot: Abraham A. (10052)
Aircraft: CESSNA 172 SKYHAWK
(C172)
More flights by this aircraft type
Origin: KCRQ McClellan-Palomar
United States
Destination: KPSP Palm Springs Intl
United States
More flights between these airports :: More routes between these airports
Route: BONDO V208 TRM
File this flight plan on PilotEdge
Remarks:
Altitude:
(Current/Filed)
9,000ft
Speed:
(Current/Filed)
120kts
Departed: 27-Jan-16 10:58 AM
Arrived: 27-Jan-16 12:01 PM
Distance/Time
Traveled:
57nm/1:03
Distance/Time
To Go:
Arrived

Flight Plot

Page will automatically refresh every two minutes.


Map Options




Map Legend


Flown Route
Filed Route
Departure Airport
Arrival Airport
Navaid (VOR, NDB)
Fix

Horizontal Profiles

Position Reports

Time Latitude Longitude Heading Altitude Ground
Speed
27-Jan-16 10:28 33.126764 -117.274681 79 334ft 0kts
27-Jan-16 10:29 33.126764 -117.274681 79 334ft 0kts
27-Jan-16 10:30 33.126764 -117.274681 79 334ft 0kts
27-Jan-16 10:31 33.126764 -117.274681 79 334ft 0kts
27-Jan-16 10:32 33.126764 -117.274681 79 334ft 0kts
27-Jan-16 10:33 33.126764 -117.274681 79 334ft 0kts
27-Jan-16 10:34 33.126764 -117.274681 79 334ft 0kts
27-Jan-16 10:35 33.126764 -117.274681 79 334ft 0kts
27-Jan-16 10:36 33.126764 -117.274681 79 334ft 0kts
27-Jan-16 10:37 33.126764 -117.274681 79 334ft 0kts
27-Jan-16 10:38 33.126764 -117.274681 79 334ft 0kts
27-Jan-16 10:39 33.126764 -117.274681 79 334ft 0kts
27-Jan-16 10:40 33.126764 -117.274681 79 334ft 0kts
27-Jan-16 10:41 33.126764 -117.274681 79 334ft 0kts
27-Jan-16 10:42 33.126764 -117.274681 79 334ft 0kts
27-Jan-16 10:43 33.126764 -117.274681 79 334ft 0kts
27-Jan-16 10:44 33.126764 -117.274681 79 334ft 0kts
27-Jan-16 10:45 33.126764 -117.274681 79 334ft 0kts
27-Jan-16 10:46 33.126764 -117.274677 79 334ft 0kts
27-Jan-16 10:47 33.126765 -117.274674 79 334ft 0kts
27-Jan-16 10:48 33.127650 -117.275216 348 334ft 8kts
27-Jan-16 10:49 33.128164 -117.272954 334 334ft 0kts
27-Jan-16 10:50 33.128168 -117.272957 334 334ft 0kts
27-Jan-16 10:51 33.128830 -117.272367 11 334ft 0kts
27-Jan-16 10:52 33.128833 -117.272366 11 334ft 0kts
27-Jan-16 10:53 33.129117 -117.274727 259 334ft 51kts
27-Jan-16 10:54 33.125753 -117.298312 261 1077ft 78kts
27-Jan-16 10:55 33.122155 -117.324437 259 2024ft 79kts
27-Jan-16 10:56 33.119269 -117.351082 263 2849ft 80kts
27-Jan-16 10:57 33.116531 -117.377702 260 3604ft 79kts
27-Jan-16 10:58 33.103330 -117.381149 96 4161ft 92kts
27-Jan-16 10:59 33.104999 -117.353081 80 4880ft 78kts
27-Jan-16 11:00 33.113914 -117.334903 52 5386ft 80kts
27-Jan-16 11:01 33.126719 -117.308772 62 5919ft 104kts
27-Jan-16 11:02 33.139597 -117.279442 66 6613ft 89kts
27-Jan-16 11:03 33.139180 -117.250315 91 7211ft 96kts
27-Jan-16 11:04 33.138958 -117.215346 88 7763ft 112kts
27-Jan-16 11:05 33.139088 -117.178731 88 8341ft 103kts
27-Jan-16 11:06 33.139229 -117.145814 88 8841ft 93kts
27-Jan-16 11:07 33.139382 -117.112288 88 9006ft 112kts
27-Jan-16 11:08 33.139519 -117.073296 88 9007ft 121kts
27-Jan-16 11:09 33.139657 -117.033745 88 9003ft 112kts
27-Jan-16 11:10 33.139803 -116.995969 88 9020ft 117kts
27-Jan-16 11:11 33.139901 -116.958027 88 9002ft 106kts
27-Jan-16 11:12 33.140003 -116.923097 88 9014ft 108kts
27-Jan-16 11:13 33.140096 -116.886441 88 9013ft 112kts
27-Jan-16 11:14 33.140152 -116.850114 88 9003ft 103kts
27-Jan-16 11:15 33.140229 -116.816698 88 9008ft 99kts
27-Jan-16 11:16 33.140297 -116.783215 88 9016ft 106kts
27-Jan-16 11:17 33.140348 -116.745640 88 8998ft 119kts
27-Jan-16 11:18 33.140380 -116.707515 88 8996ft 107kts
27-Jan-16 11:19 33.140403 -116.672907 88 9002ft 102kts
27-Jan-16 11:20 33.140413 -116.638762 88 9006ft 103kts
27-Jan-16 11:21 33.140423 -116.603843 88 9003ft 106kts
27-Jan-16 11:22 33.152440 -116.575625 34 9008ft 105kts
27-Jan-16 11:23 33.176098 -116.554976 36 9003ft 104kts
27-Jan-16 11:24 33.199696 -116.534447 36 9004ft 104kts
27-Jan-16 11:25 33.223234 -116.513998 36 9006ft 104kts
27-Jan-16 11:26 33.246778 -116.493521 36 9006ft 104kts
27-Jan-16 11:27 33.270331 -116.473030 36 9007ft 104kts
27-Jan-16 11:28 33.293786 -116.452612 36 9011ft 104kts
27-Jan-16 11:29 33.317767 -116.431723 36 9007ft 110kts
27-Jan-16 11:30 33.343754 -116.409091 36 8997ft 121kts
27-Jan-16 11:31 33.369972 -116.386223 36 8999ft 109kts
27-Jan-16 11:32 33.394519 -116.364798 36 9002ft 111kts
27-Jan-16 11:33 33.419169 -116.343263 35 8999ft 106kts
27-Jan-16 11:34 33.442934 -116.322485 36 8999ft 104kts
27-Jan-16 11:35 33.466497 -116.301874 35 9000ft 104kts
27-Jan-16 11:36 33.489963 -116.281331 35 9000ft 104kts
27-Jan-16 11:37 33.513491 -116.260717 35 8999ft 104kts
27-Jan-16 11:38 33.537026 -116.240084 35 9000ft 104kts
27-Jan-16 11:39 33.561306 -116.218782 35 9004ft 112kts
27-Jan-16 11:40 33.586194 -116.196929 35 8996ft 107kts
27-Jan-16 11:41 33.609976 -116.176029 36 8996ft 104kts
27-Jan-16 11:42 33.634897 -116.171831 301 8800ft 114kts
27-Jan-16 11:43 33.652521 -116.201857 307 8044ft 107kts
27-Jan-16 11:44 33.669246 -116.230557 307 7179ft 104kts
27-Jan-16 11:45 33.685844 -116.259003 307 6284ft 103kts
27-Jan-16 11:46 33.703114 -116.288606 307 5423ft 113kts
27-Jan-16 11:47 33.720570 -116.318555 306 4483ft 104kts
27-Jan-16 11:48 33.737228 -116.347139 306 3780ft 108kts
27-Jan-16 11:49 33.754018 -116.376002 306 3162ft 99kts
27-Jan-16 11:50 33.768866 -116.401534 306 3065ft 90kts
27-Jan-16 11:51 33.782087 -116.424222 308 2833ft 78kts
27-Jan-16 11:52 33.793626 -116.444601 298 2145ft 73kts
27-Jan-16 11:53 33.802013 -116.466337 295 1574ft 71kts
27-Jan-16 11:54 33.811106 -116.487200 299 1074ft 66kts
27-Jan-16 11:55 33.823558 -116.502062 323 491ft 50kts
27-Jan-16 11:56 33.829041 -116.506854 349 480ft 20kts
27-Jan-16 11:57 33.830034 -116.506840 4 480ft 7kts
27-Jan-16 11:58 33.828133 -116.504440 142 480ft 17kts
27-Jan-16 11:59 33.824384 -116.501063 142 480ft 14kts
27-Jan-16 12:00 33.821207 -116.498168 143 480ft 11kts
27-Jan-16 12:01 33.819128 -116.496314 142 480ft 9kts
27-Jan-16 12:02 33.820108 -116.495054 326 480ft 7kts
27-Jan-16 12:03 33.821584 -116.495173 52 480ft 7kts
27-Jan-16 12:04 33.821759 -116.494941 241 480ft 0kts

Navigation Log

Ident Type
Flight plan parsing failed, navigation log unavailable